Terminal Aerodrome Forecast
Issued by NWS Pendleton, OR

Home | Current Version | Previous Version | Text Only | Print | Product List | Glossary On
Versions: 1 2 3 4 5 6 7 8 9 10 11 12 13 14 15 16 17 18 19 20 21 22 23 24 25 26 27 28 29 30 31 32 33 34 35 36
000
FTUS46 KPDT 301000 AAA
TAFPDT
TAF AMD
KPDT 301039Z 3011/3106 VRB03KT 3SM BR OVC004
     FM301400 12003KT 2SM BR OVC004
     FM301800 10003KT 5SM BR OVC006
     FM302100 33004KT 6SM BR OVC008
     FM310300 VRB03KT 3SM BR OVC004=

USA.gov is the U.S. government's official web portal to all federal, state and local government web resources and services.